Time;durP1;ratioP1;P1;durP2;ratioP2;P2;SDS_P1;SDS_P2;PMS_P1;PMS_P2;Temp;Humidity;BMP_temperature;BMP_pressure;BME280_temperature;BME280_humidity;BME280_pressure;Samples;Min_cycle;Max_cycle;Signal;HPM_P1;HPM_P2
2021/11/06 00:00:19;;;;;;;12.00;10.70;;;11.20;99.90;;;;;;5014877;28;20405;-72
2021/11/06 00:02:45;;;;;;;13.77;10.47;;;11.20;99.90;;;;;;5015446;28;20627;-72
2021/11/06 00:05:11;;;;;;;12.43;10.70;;;11.30;99.90;;;;;;5014322;28;21028;-72
2021/11/06 00:07:37;;;;;;;12.27;10.97;;;11.10;99.90;;;;;;5015358;28;20420;-72
2021/11/06 00:10:05;;;;;;;12.43;11.17;;;11.10;99.90;;;;;;5014915;28;20205;-74
2021/11/06 00:12:31;;;;;;;16.60;10.87;;;11.00;99.90;;;;;;5014932;28;20427;-72
2021/11/06 00:14:57;;;;;;;11.57;10.30;;;11.00;99.90;;;;;;5015010;28;20906;-71
2021/11/06 00:17:22;;;;;;;14.80;12.37;;;11.00;99.90;;;;;;4997086;28;20583;-72
2021/11/06 00:19:48;;;;;;;12.90;11.47;;;11.00;99.90;;;;;;5015321;28;20182;-72
2021/11/06 00:22:14;;;;;;;13.33;10.87;;;11.00;99.90;;;;;;5014539;28;20189;-72
2021/11/06 00:24:39;;;;;;;12.50;10.90;;;11.00;99.90;;;;;;5014983;28;20195;-72
2021/11/06 00:27:05;;;;;;;12.23;11.03;;;10.90;99.90;;;;;;5014399;28;20630;-73
2021/11/06 00:29:31;;;;;;;12.90;11.10;;;10.90;99.90;;;;;;5014969;28;20175;-72
2021/11/06 00:31:57;;;;;;;14.30;11.00;;;10.90;99.90;;;;;;5014933;28;20418;-72
2021/11/06 00:34:23;;;;;;;10.97;10.00;;;10.80;99.90;;;;;;5013964;28;20185;-72
2021/11/06 00:36:48;;;;;;;14.20;10.57;;;10.80;99.90;;;;;;5014834;28;20189;-72
2021/11/06 00:39:14;;;;;;;12.50;11.20;;;10.80;99.90;;;;;;5014165;28;20175;-72
2021/11/06 00:41:40;;;;;;;10.60;9.67;;;10.80;99.90;;;;;;5014148;28;20635;-71
2021/11/06 00:44:05;;;;;;;12.47;10.23;;;10.80;99.90;;;;;;5014136;28;20213;-73
2021/11/06 00:46:32;;;;;;;11.10;10.10;;;10.70;99.90;;;;;;5014653;28;20189;-72
2021/11/06 00:48:57;;;;;;;11.53;10.30;;;10.70;99.90;;;;;;5014587;28;20208;-72
2021/11/06 00:51:23;;;;;;;10.17;9.03;;;10.70;99.90;;;;;;5013926;28;20436;-72
2021/11/06 00:53:49;;;;;;;11.50;10.30;;;10.70;99.90;;;;;;5014459;28;20182;-72
2021/11/06 00:56:15;;;;;;;11.60;10.40;;;10.60;99.90;;;;;;5013533;28;20420;-71
2021/11/06 00:58:41;;;;;;;11.70;9.73;;;10.60;99.90;;;;;;5014406;28;20630;-72
2021/11/06 01:01:06;;;;;;;12.63;9.27;;;10.70;99.90;;;;;;5013465;28;20615;-73
2021/11/06 01:03:33;;;;;;;10.53;9.10;;;10.70;99.90;;;;;;5014433;28;20206;-71
2021/11/06 01:05:59;;;;;;;12.03;9.80;;;10.60;99.90;;;;;;5014283;28;20555;-72
2021/11/06 01:08:25;;;;;;;12.67;10.90;;;10.60;99.90;;;;;;4995881;28;20497;-72
2021/11/06 01:10:50;;;;;;;10.57;9.47;;;10.70;99.90;;;;;;5014256;28;20634;-72
2021/11/06 01:13:18;;;;;;;12.53;9.27;;;10.70;99.90;;;;;;5013852;28;20173;-72
2021/11/06 01:15:43;;;;;;;11.27;10.10;;;10.70;99.90;;;;;;5013964;28;20186;-72
2021/11/06 01:18:09;;;;;;;15.87;10.33;;;10.70;99.90;;;;;;5012883;28;20420;-72
2021/11/06 01:20:35;;;;;;;12.67;9.43;;;10.70;99.90;;;;;;5013672;28;20500;-72
2021/11/06 01:23:01;;;;;;;13.40;10.17;;;10.60;99.90;;;;;;5013695;28;20410;-72
2021/11/06 01:25:27;;;;;;;11.70;10.50;;;10.60;99.90;;;;;;5013274;28;20230;-72
2021/11/06 01:27:53;;;;;;;12.43;9.40;;;10.70;99.90;;;;;;5014068;28;20424;-71
2021/11/06 01:30:18;;;;;;;14.30;10.37;;;10.60;99.90;;;;;;4995772;28;20443;-72
2021/11/06 01:32:46;;;;;;;11.53;10.10;;;10.60;99.90;;;;;;5013814;28;20231;-72
2021/11/06 01:35:13;;;;;;;12.07;10.87;;;10.50;99.90;;;;;;5013126;28;20205;-72
2021/11/06 01:37:39;;;;;;;12.13;9.70;;;10.60;99.90;;;;;;5013701;28;20422;-72
2021/11/06 01:40:08;;;;;;;14.03;11.20;;;10.50;99.90;;;;;;5013739;28;20431;-72
2021/11/06 01:42:33;;;;;;;13.93;10.90;;;10.50;99.90;;;;;;5013648;28;20531;-72
2021/11/06 01:44:59;;;;;;;14.73;10.63;;;10.50;99.90;;;;;;5013537;28;20516;-72
2021/11/06 01:47:25;;;;;;;12.37;11.10;;;10.50;99.90;;;;;;5012976;28;20193;-72
2021/11/06 01:49:51;;;;;;;12.73;11.43;;;10.40;99.90;;;;;;5013489;28;20176;-72
2021/11/06 01:52:17;;;;;;;12.97;11.20;;;10.40;99.90;;;;;;5012860;28;20235;-72
2021/11/06 01:54:42;;;;;;;12.80;11.07;;;10.40;99.90;;;;;;5013444;28;20447;-72
2021/11/06 01:57:09;;;;;;;14.13;12.50;;;10.30;99.90;;;;;;5013674;28;20185;-72
2021/11/06 01:59:35;;;;;;;14.03;12.73;;;10.30;99.90;;;;;;5013055;28;20180;-72
2021/11/06 02:02:01;;;;;;;13.13;11.83;;;10.30;99.90;;;;;;5013269;28;20483;-72
2021/11/06 02:04:27;;;;;;;16.87;14.10;;;10.30;99.90;;;;;;5012581;28;20440;-72
2021/11/06 02:06:53;;;;;;;15.03;13.53;;;10.30;99.90;;;;;;5013210;28;20183;-72
2021/11/06 02:09:18;;;;;;;16.43;13.97;;;10.30;99.90;;;;;;5012305;28;20445;-72
2021/11/06 02:11:44;;;;;;;18.43;15.83;;;10.20;99.90;;;;;;5013403;28;20674;-72
2021/11/06 02:14:10;;;;;;;20.50;15.00;;;10.20;99.90;;;;;;5012630;28;20232;-74
2021/11/06 02:16:37;;;;;;;20.33;14.73;;;10.20;99.90;;;;;;5013046;28;20412;-72
2021/11/06 02:19:03;;;;;;;16.87;15.07;;;10.20;99.90;;;;;;5012992;28;20410;-72
2021/11/06 02:21:29;;;;;;;17.17;14.90;;;10.10;99.90;;;;;;5011406;28;20427;-72
2021/11/06 02:23:55;;;;;;;18.40;15.03;;;10.20;99.90;;;;;;5012349;28;20450;-72
2021/11/06 02:26:21;;;;;;;17.90;15.80;;;10.20;99.90;;;;;;5012134;28;20421;-72
2021/11/06 02:28:54;;;;;;;17.33;15.50;;;10.10;99.90;;;;;;5013013;28;20413;-72
2021/11/06 02:31:21;;;;;;;21.73;17.10;;;10.10;99.90;;;;;;5012322;28;20403;-72
2021/11/06 02:33:49;;;;;;;16.70;15.00;;;10.10;99.90;;;;;;5012584;28;20490;-72
2021/11/06 02:36:15;;;;;;;18.97;14.10;;;10.10;99.90;;;;;;5012254;28;20755;-72
2021/11/06 02:38:41;;;;;;;17.63;14.80;;;10.10;99.90;;;;;;5012829;28;20413;-72
2021/11/06 02:41:07;;;;;;;19.23;15.60;;;10.10;99.90;;;;;;5012884;28;20408;-72
2021/11/06 02:43:33;;;;;;;16.50;13.87;;;10.10;99.90;;;;;;5012329;28;20859;-72
2021/11/06 02:45:59;;;;;;;15.30;13.70;;;10.00;99.90;;;;;;5012812;28;20407;-72
2021/11/06 02:48:26;;;;;;;18.00;14.70;;;10.00;99.90;;;;;;5012152;28;20745;-72
2021/11/06 02:50:52;;;;;;;16.90;13.83;;;10.10;99.90;;;;;;5012877;28;20448;-72
2021/11/06 02:53:18;;;;;;;14.53;13.03;;;10.10;99.90;;;;;;4994693;28;20466;-72
2021/11/06 02:55:44;;;;;;;15.13;13.33;;;10.10;99.90;;;;;;5012628;28;20904;-72
2021/11/06 02:58:11;;;;;;;14.33;12.90;;;10.10;99.90;;;;;;5012773;28;20427;-72
2021/11/06 03:00:37;;;;;;;15.10;12.80;;;10.10;99.90;;;;;;5012066;28;20879;-72
2021/11/06 03:03:03;;;;;;;15.30;12.73;;;10.10;99.90;;;;;;5012660;28;20759;-72
2021/11/06 03:05:29;;;;;;;15.00;12.70;;;10.00;99.90;;;;;;5011981;28;20555;-72
2021/11/06 03:07:55;;;;;;;18.53;12.20;;;10.00;99.90;;;;;;5012557;28;20420;-72
2021/11/06 03:10:21;;;;;;;16.13;12.17;;;10.00;99.90;;;;;;5011817;28;20459;-72
2021/11/06 03:12:48;;;;;;;14.43;11.90;;;10.00;99.90;;;;;;5012503;28;20473;-72
2021/11/06 03:15:14;;;;;;;18.13;11.13;;;10.00;99.90;;;;;;5011919;28;20213;-74
2021/11/06 03:17:40;;;;;;;20.67;11.20;;;10.10;99.90;;;;;;5012506;28;20751;-72
2021/11/06 03:20:07;;;;;;;12.60;10.80;;;10.00;99.90;;;;;;4994982;28;20436;-72
2021/11/06 03:22:32;;;;;;;19.50;12.27;;;10.00;99.90;;;;;;5011848;28;20410;-72
2021/11/06 03:24:59;;;;;;;12.07;10.80;;;10.00;99.90;;;;;;5012410;28;21018;-72
2021/11/06 03:27:24;;;;;;;14.40;10.83;;;10.00;99.90;;;;;;5011774;28;20403;-72
2021/11/06 03:29:50;;;;;;;19.17;12.43;;;10.00;99.90;;;;;;5012383;28;20518;-72
2021/11/06 03:32:16;;;;;;;16.87;11.80;;;10.00;99.90;;;;;;5011782;28;20177;-72
2021/11/06 03:34:42;;;;;;;15.37;11.70;;;10.00;99.90;;;;;;5012347;28;20456;-72
2021/11/06 03:37:08;;;;;;;15.33;10.37;;;10.00;99.90;;;;;;5012296;28;20822;-72
2021/11/06 03:39:35;;;;;;;14.07;11.40;;;10.00;99.90;;;;;;5012042;28;20412;-72
2021/11/06 03:42:03;;;;;;;14.73;10.17;;;10.00;99.90;;;;;;5015646;28;20215;-72
2021/11/06 03:44:28;;;;;;;15.13;10.63;;;10.10;99.90;;;;;;4997755;28;20507;-72
2021/11/06 03:46:54;;;;;;;15.63;11.30;;;10.10;99.90;;;;;;5015496;28;20518;-72
2021/11/06 03:49:20;;;;;;;15.23;11.13;;;10.10;99.90;;;;;;5015164;28;20680;-73
2021/11/06 03:51:46;;;;;;;13.67;10.83;;;10.10;99.90;;;;;;5015919;28;20176;-72
2021/11/06 03:54:12;;;;;;;11.63;10.10;;;10.10;99.90;;;;;;5015687;28;20770;-71
2021/11/06 03:56:38;;;;;;;16.00;10.53;;;10.10;99.90;;;;;;5014939;28;20402;-72
2021/11/06 03:59:04;;;;;;;10.70;9.60;;;10.10;99.90;;;;;;4998070;28;20187;-72
2021/11/06 04:01:32;;;;;;;12.40;10.93;;;10.00;99.90;;;;;;5014897;28;20415;-72
2021/11/06 04:03:58;;;;;;;15.13;11.30;;;10.00;99.90;;;;;;5015352;28;20239;-72
2021/11/06 04:06:23;;;;;;;17.03;12.20;;;10.00;99.90;;;;;;4997273;28;20442;-72
2021/11/06 04:08:51;;;;;;;12.73;11.43;;;10.00;99.90;;;;;;5015481;28;20416;-72
2021/11/06 04:11:18;;;;;;;13.80;11.80;;;10.10;99.90;;;;;;5015199;28;20452;-74
2021/11/06 04:13:44;;;;;;;17.30;11.67;;;10.10;99.90;;;;;;5015283;28;20418;-72
2021/11/06 04:16:09;;;;;;;14.57;10.83;;;10.10;99.90;;;;;;5015233;28;20410;-72
2021/11/06 04:18:35;;;;;;;14.87;11.50;;;10.00;99.90;;;;;;5014558;28;20171;-72
2021/11/06 04:21:01;;;;;;;15.33;11.77;;;10.00;99.90;;;;;;5015168;28;20700;-72
2021/11/06 04:23:27;;;;;;;17.80;12.47;;;10.00;99.90;;;;;;5014108;28;20406;-72
2021/11/06 04:25:53;;;;;;;15.03;11.50;;;10.00;99.90;;;;;;5015409;28;20943;-72
2021/11/06 04:28:19;;;;;;;16.00;12.00;;;10.00;99.90;;;;;;5014495;28;20180;-73
2021/11/06 04:30:45;;;;;;;14.80;12.23;;;10.00;99.90;;;;;;5014993;28;20413;-72
2021/11/06 04:33:10;;;;;;;18.33;12.30;;;10.00;99.90;;;;;;5014924;28;20185;-72
2021/11/06 04:35:36;;;;;;;16.47;12.90;;;10.00;99.90;;;;;;5014327;28;20184;-72
2021/11/06 04:38:02;;;;;;;15.90;12.47;;;10.00;99.90;;;;;;5014800;28;20180;-72
2021/11/06 04:40:28;;;;;;;16.00;12.23;;;10.00;99.90;;;;;;5014055;28;20546;-72
2021/11/06 04:42:53;;;;;;;20.90;13.23;;;10.00;99.90;;;;;;4997034;28;20308;-72
2021/11/06 04:45:19;;;;;;;17.47;12.80;;;10.00;99.90;;;;;;5013952;28;20208;-73
2021/11/06 04:47:45;;;;;;;16.47;12.80;;;10.10;99.90;;;;;;5014630;28;20179;-72
2021/11/06 04:50:11;;;;;;;14.20;11.50;;;10.00;99.90;;;;;;5014600;28;20176;-71
2021/11/06 04:52:38;;;;;;;14.57;12.63;;;10.10;99.90;;;;;;5012809;28;20538;-72
2021/11/06 04:55:07;;;;;;;14.57;11.93;;;10.10;99.90;;;;;;5014221;28;20837;-72
2021/11/06 04:57:33;;;;;;;19.57;12.00;;;10.10;99.90;;;;;;5013911;28;20420;-72
2021/11/06 04:59:58;;;;;;;18.17;11.50;;;10.10;99.90;;;;;;5014421;28;20411;-72
2021/11/06 05:02:24;;;;;;;14.67;11.57;;;10.20;99.90;;;;;;5013766;28;20179;-72
2021/11/06 05:04:51;;;;;;;13.87;10.67;;;10.20;99.90;;;;;;5014255;28;20239;-72
2021/11/06 05:07:17;;;;;;;15.97;11.67;;;10.20;99.90;;;;;;4996832;28;20175;-71
2021/11/06 05:09:45;;;;;;;13.10;10.77;;;10.20;99.90;;;;;;5013632;28;20421;-72
2021/11/06 05:12:12;;;;;;;15.90;11.67;;;10.20;99.90;;;;;;5014459;28;20425;-72
2021/11/06 05:14:39;;;;;;;13.37;10.90;;;10.20;99.90;;;;;;4996107;28;20466;-72
2021/11/06 05:17:05;;;;;;;13.27;11.43;;;10.20;99.90;;;;;;5014061;28;20912;-72
2021/11/06 05:19:30;;;;;;;13.97;10.43;;;10.20;99.90;;;;;;5013511;28;20438;-72
2021/11/06 05:21:56;;;;;;;14.53;11.10;;;10.30;99.90;;;;;;5014081;28;20438;-72
2021/11/06 05:24:22;;;;;;;16.73;11.80;;;10.30;99.90;;;;;;5013225;28;20276;-73
2021/11/06 05:26:48;;;;;;;14.57;11.40;;;10.20;99.90;;;;;;5014220;28;20192;-72
2021/11/06 05:29:18;;;;;;;15.87;11.03;;;10.20;99.90;;;;;;5013783;28;20644;-72
2021/11/06 05:31:43;;;;;;;17.17;10.83;;;10.20;99.90;;;;;;5013200;28;20207;-72
2021/11/06 05:34:09;;;;;;;11.10;9.93;;;10.20;99.90;;;;;;5013781;28;20500;-72
2021/11/06 05:36:35;;;;;;;12.50;10.53;;;10.20;99.90;;;;;;5012894;28;20242;-72
2021/11/06 05:39:01;;;;;;;13.90;11.63;;;10.20;99.90;;;;;;5013772;28;20194;-72
2021/11/06 05:41:27;;;;;;;12.77;11.30;;;10.20;99.90;;;;;;5013151;28;20598;-72
2021/11/06 05:43:53;;;;;;;17.10;11.97;;;10.20;99.90;;;;;;5013745;28;20562;-71
2021/11/06 05:46:19;;;;;;;12.57;11.27;;;10.20;99.90;;;;;;5013616;28;20185;-71
2021/11/06 05:48:44;;;;;;;15.20;12.00;;;10.20;99.90;;;;;;5012937;28;20456;-71
2021/11/06 05:51:10;;;;;;;14.20;12.20;;;10.20;99.90;;;;;;5013508;28;20176;-71
2021/11/06 05:53:36;;;;;;;13.93;11.27;;;10.10;99.90;;;;;;5012866;28;20184;-72
2021/11/06 05:56:02;;;;;;;15.80;11.40;;;10.10;99.90;;;;;;5013407;28;20181;-71
2021/11/06 05:58:28;;;;;;;14.07;11.77;;;10.20;99.90;;;;;;5012812;28;20409;-71
2021/11/06 06:00:53;;;;;;;17.20;14.60;;;10.20;99.90;;;;;;5013036;28;20405;-71
2021/11/06 06:03:19;;;;;;;14.40;11.83;;;10.10;99.90;;;;;;5012939;28;20537;-71
2021/11/06 06:05:45;;;;;;;13.67;10.03;;;10.10;99.90;;;;;;5012351;28;20168;-71
2021/11/06 06:08:11;;;;;;;14.23;11.30;;;10.10;99.90;;;;;;5013180;28;20173;-71
2021/11/06 06:10:37;;;;;;;13.67;11.10;;;10.10;99.90;;;;;;5012521;28;20181;-71
2021/11/06 06:13:02;;;;;;;13.10;11.00;;;10.10;99.90;;;;;;5013250;28;20435;-72
2021/11/06 06:15:28;;;;;;;15.47;11.67;;;10.10;99.90;;;;;;5012589;28;20512;-72
2021/11/06 06:17:54;;;;;;;11.43;10.00;;;10.10;99.90;;;;;;5012805;28;20177;-71
2021/11/06 06:20:21;;;;;;;16.00;11.27;;;10.10;99.90;;;;;;5013110;28;20177;-71
2021/11/06 06:22:47;;;;;;;16.43;12.07;;;10.10;99.90;;;;;;5012695;28;20414;-71
2021/11/06 06:25:15;;;;;;;16.03;11.53;;;10.10;99.90;;;;;;5012938;28;20482;-70
2021/11/06 06:27:41;;;;;;;13.40;10.80;;;10.00;99.90;;;;;;5012083;28;20181;-71
2021/11/06 06:30:09;;;;;;;12.97;11.10;;;10.00;99.90;;;;;;5012924;28;20420;-71
2021/11/06 06:32:36;;;;;;;18.27;11.40;;;9.90;99.90;;;;;;5012345;28;20410;-71
2021/11/06 06:35:02;;;;;;;15.67;11.60;;;9.90;99.90;;;;;;5012883;28;20448;-71
2021/11/06 06:37:28;;;;;;;14.43;11.30;;;9.90;99.90;;;;;;5012218;28;20417;-72
2021/11/06 06:39:54;;;;;;;13.70;10.87;;;9.90;99.90;;;;;;5012834;28;20502;-71
2021/11/06 06:42:20;;;;;;;12.97;11.40;;;10.00;99.90;;;;;;5012866;28;20279;-70
2021/11/06 06:44:46;;;;;;;11.90;10.60;;;9.90;99.90;;;;;;5012119;28;20534;-71
2021/11/06 06:47:13;;;;;;;17.63;12.03;;;10.00;99.90;;;;;;5012892;28;20503;-71
2021/11/06 06:49:39;;;;;;;13.37;9.93;;;9.90;99.90;;;;;;5012139;28;20416;-71
2021/11/06 06:52:05;;;;;;;11.30;9.93;;;10.00;99.90;;;;;;5012776;28;20750;-71
2021/11/06 06:54:32;;;;;;;13.63;10.30;;;9.90;99.90;;;;;;5012109;28;20447;-71
2021/11/06 06:56:57;;;;;;;14.40;10.33;;;10.00;99.90;;;;;;5012622;28;20406;-71
2021/11/06 06:59:23;;;;;;;13.60;11.17;;;10.00;99.90;;;;;;5012559;28;20416;-71
2021/11/06 07:01:50;;;;;;;17.13;11.30;;;10.00;99.90;;;;;;5012021;28;20406;-71
2021/11/06 07:04:15;;;;;;;12.73;10.73;;;10.00;99.90;;;;;;5012525;28;20482;-71
2021/11/06 07:06:42;;;;;;;19.80;12.20;;;10.00;99.90;;;;;;5012009;28;20405;-71
2021/11/06 07:09:08;;;;;;;14.20;10.97;;;10.00;99.90;;;;;;5012561;28;20406;-71
2021/11/06 07:11:34;;;;;;;14.53;10.73;;;10.10;99.90;;;;;;5011689;28;20426;-71
2021/11/06 07:13:59;;;;;;;16.10;11.17;;;10.10;99.90;;;;;;5012570;28;20644;-71
2021/11/06 07:16:25;;;;;;;12.73;10.43;;;10.20;99.90;;;;;;5015922;28;20193;-71
2021/11/06 07:18:51;;;;;;;15.80;10.43;;;10.10;99.90;;;;;;5015496;28;20180;-71
2021/11/06 07:21:16;;;;;;;16.50;10.43;;;10.10;99.90;;;;;;5016181;28;20553;-71
2021/11/06 07:23:42;;;;;;;12.60;10.70;;;10.20;99.90;;;;;;5015301;28;20284;-71
2021/11/06 07:26:09;;;;;;;21.23;10.70;;;10.20;99.90;;;;;;4998408;28;20193;-71
2021/11/06 07:28:35;;;;;;;16.30;11.23;;;10.30;99.90;;;;;;5015547;28;20504;-71
2021/11/06 07:31:02;;;;;;;13.97;10.63;;;10.30;99.90;;;;;;5016124;28;20485;-71
2021/11/06 07:33:27;;;;;;;12.47;8.70;;;10.30;99.90;;;;;;5016089;28;20223;-71
2021/11/06 07:35:53;;;;;;;11.77;9.47;;;10.30;99.90;;;;;;5015109;28;20893;-71
2021/11/06 07:38:19;;;;;;;11.03;9.30;;;10.30;99.90;;;;;;5016003;28;20171;-71
2021/11/06 07:40:44;;;;;;;14.30;9.70;;;10.30;99.90;;;;;;5015092;28;20173;-71
2021/11/06 07:43:11;;;;;;;12.43;9.73;;;10.40;99.90;;;;;;5016016;28;20636;-71
2021/11/06 07:45:37;;;;;;;14.90;10.60;;;10.50;99.90;;;;;;5015146;28;20213;-71
2021/11/06 07:48:03;;;;;;;13.03;9.70;;;10.50;99.90;;;;;;5015495;28;20444;-70
2021/11/06 07:50:30;;;;;;;12.60;9.07;;;10.60;99.90;;;;;;5015479;28;20912;-71
2021/11/06 07:52:56;;;;;;;12.23;9.40;;;10.60;99.90;;;;;;5015748;28;20405;-71
2021/11/06 07:55:22;;;;;;;10.57;8.77;;;10.70;99.90;;;;;;5015618;28;20426;-71
2021/11/06 07:57:48;;;;;;;12.47;8.47;;;10.70;99.90;;;;;;5015042;28;20178;-71
2021/11/06 08:00:18;;;;;;;9.63;8.63;;;10.70;99.90;;;;;;5015607;28;20450;-71
2021/11/06 08:02:45;;;;;;;11.20;7.90;;;10.70;99.90;;;;;;5014916;28;20188;-71
2021/11/06 08:05:13;;;;;;;12.77;8.23;;;10.70;99.90;;;;;;4998032;28;20460;-71
2021/11/06 08:07:40;;;;;;;8.40;7.40;;;10.70;99.90;;;;;;5014880;28;20410;-71
2021/11/06 08:10:07;;;;;;;8.40;7.20;;;10.80;99.90;;;;;;4997875;28;20427;-71
2021/11/06 08:12:37;;;;;;;8.80;8.00;;;10.80;99.90;;;;;;5014843;28;21016;-72
2021/11/06 08:15:03;;;;;;;8.43;7.63;;;10.80;99.90;;;;;;5015415;28;20418;-71
2021/11/06 08:17:29;;;;;;;8.03;7.23;;;10.80;99.90;;;;;;5015227;28;20406;-71
2021/11/06 08:19:56;;;;;;;8.27;7.57;;;11.00;99.90;;;;;;5014876;28;20805;-71
2021/11/06 08:22:22;;;;;;;9.80;6.57;;;11.00;99.90;;;;;;5014884;28;20182;-71
2021/11/06 08:24:48;;;;;;;8.23;7.00;;;11.10;99.90;;;;;;4996835;28;20829;-71
2021/11/06 08:27:14;;;;;;;9.23;7.07;;;11.00;99.60;;;;;;5014709;28;20421;-71
2021/11/06 08:29:41;;;;;;;10.40;6.90;;;11.10;99.80;;;;;;5014425;28;20182;-71
2021/11/06 08:32:07;;;;;;;8.03;6.03;;;11.10;99.50;;;;;;5014972;28;20417;-71
2021/11/06 08:34:33;;;;;;;11.43;7.50;;;11.20;99.50;;;;;;5014539;28;20437;-73
2021/11/06 08:36:59;;;;;;;7.47;6.77;;;11.30;99.60;;;;;;5014849;28;20418;-71
2021/11/06 08:39:25;;;;;;;8.23;6.80;;;11.40;99.70;;;;;;4997714;28;20505;-71
2021/11/06 08:41:52;;;;;;;10.17;7.77;;;11.60;99.60;;;;;;5013768;28;20464;-71
2021/11/06 08:44:19;;;;;;;6.97;6.27;;;11.60;99.30;;;;;;5014718;28;20458;-71
2021/11/06 08:46:48;;;;;;;6.90;6.20;;;11.60;98.00;;;;;;5014114;28;20883;-71
2021/11/06 08:49:14;;;;;;;6.97;6.37;;;11.70;98.20;;;;;;5014641;28;20413;-71
2021/11/06 08:51:46;;;;;;;7.40;6.37;;;11.80;98.60;;;;;;4996575;28;20454;-71
2021/11/06 08:54:12;;;;;;;7.13;5.90;;;12.00;98.70;;;;;;5014653;28;20398;-71
2021/11/06 08:56:39;;;;;;;6.93;6.23;;;12.20;98.40;;;;;;5013898;28;20502;-72
2021/11/06 08:59:05;;;;;;;7.80;6.20;;;12.70;98.20;;;;;;5014394;28;20956;-71
2021/11/06 09:01:31;;;;;;;7.17;6.57;;;13.30;97.50;;;;;;5014478;28;20448;-71
2021/11/06 09:03:58;;;;;;;8.13;5.87;;;13.70;95.50;;;;;;5013450;28;20792;-71
2021/11/06 09:06:24;;;;;;;6.90;6.30;;;14.00;94.20;;;;;;5014440;28;20415;-71
2021/11/06 09:08:49;;;;;;;9.00;6.30;;;14.10;94.00;;;;;;5013734;28;20417;-71
2021/11/06 09:11:17;;;;;;;6.10;5.60;;;14.40;93.10;;;;;;5014131;28;20406;-71
2021/11/06 09:13:50;;;;;;;6.27;5.63;;;14.60;92.40;;;;;;5013669;28;20431;-72
2021/11/06 09:16:16;;;;;;;7.03;6.33;;;14.70;92.90;;;;;;5014039;28;20439;-71
2021/11/06 09:18:42;;;;;;;6.70;6.20;;;14.80;91.90;;;;;;5012933;28;20411;-72
2021/11/06 09:21:18;;;;;;;7.17;6.00;;;14.80;91.30;;;;;;5013728;28;20497;-71
2021/11/06 09:23:47;;;;;;;5.70;5.17;;;14.80;91.80;;;;;;5013153;28;20861;-71
2021/11/06 09:26:14;;;;;;;6.00;5.50;;;14.80;91.20;;;;;;5014193;28;20421;-71
2021/11/06 09:28:42;;;;;;;5.97;5.47;;;14.60;91.20;;;;;;5013362;28;20438;-72
2021/11/06 09:31:11;;;;;;;8.17;5.03;;;14.50;91.50;;;;;;5013839;28;20778;-71
2021/11/06 09:33:38;;;;;;;5.87;4.90;;;14.40;91.60;;;;;;5013236;28;20438;-72
2021/11/06 09:36:04;;;;;;;5.97;5.37;;;14.40;92.00;;;;;;5013854;28;20406;-71
2021/11/06 09:38:30;;;;;;;6.23;5.73;;;14.30;91.90;;;;;;5013067;28;20510;-71
2021/11/06 09:41:02;;;;;;;5.50;5.10;;;14.30;91.70;;;;;;5013420;28;20800;-71
2021/11/06 09:43:28;;;;;;;6.10;5.60;;;14.30;92.20;;;;;;5013720;28;20974;-71
2021/11/06 09:45:55;;;;;;;6.10;5.70;;;14.30;92.20;;;;;;4995453;28;20472;-71
2021/11/06 09:48:25;;;;;;;5.80;5.40;;;14.30;92.30;;;;;;5013255;28;20410;-73
2021/11/06 09:50:51;;;;;;;6.57;5.23;;;14.20;92.00;;;;;;5012889;28;20431;-73
2021/11/06 09:53:17;;;;;;;5.63;5.10;;;14.10;92.10;;;;;;5013846;28;20425;-72
2021/11/06 09:55:44;;;;;;;9.47;5.10;;;14.10;92.30;;;;;;5012906;28;20432;-73
2021/11/06 09:58:10;;;;;;;7.13;6.00;;;14.10;92.70;;;;;;5013451;28;20425;-72
2021/11/06 10:00:38;;;;;;;6.23;5.60;;;14.10;92.50;;;;;;5013236;28;20452;-72
2021/11/06 10:03:04;;;;;;;5.13;4.77;;;14.30;91.90;;;;;;5013442;28;20822;-71
2021/11/06 10:05:54;;;;;;;5.20;4.80;;;14.60;91.40;;;;;;4995466;28;20447;-72
2021/11/06 10:08:24;;;;;;;5.47;5.03;;;14.90;91.20;;;;;;5013544;28;20408;-72
2021/11/06 10:10:52;;;;;;;5.67;5.17;;;15.20;90.80;;;;;;5012494;28;20408;-73
2021/11/06 10:13:20;;;;;;;5.50;5.00;;;15.30;90.10;;;;;;5013187;28;20412;-72
2021/11/06 10:15:52;;;;;;;5.70;5.30;;;15.50;89.80;;;;;;5012424;28;20750;-72
2021/11/06 10:18:20;;;;;;;5.40;5.00;;;15.80;88.80;;;;;;5013204;28;20709;-72
2021/11/06 10:20:49;;;;;;;4.97;4.67;;;16.00;87.90;;;;;;5012539;28;20432;-72
2021/11/06 10:23:15;;;;;;;6.57;5.03;;;16.20;88.60;;;;;;5013166;28;20449;-72
2021/11/06 10:25:41;;;;;;;6.13;5.53;;;16.30;87.00;;;;;;5012418;28;20453;-73
2021/11/06 10:28:12;;;;;;;5.97;5.57;;;16.30;87.80;;;;;;5013039;28;20401;-72
2021/11/06 10:30:41;;;;;;;9.13;5.10;;;16.30;87.80;;;;;;5012888;28;20167;-72
2021/11/06 10:33:15;;;;;;;5.40;4.93;;;16.30;87.30;;;;;;5013006;28;20409;-72
2021/11/06 10:35:51;;;;;;;5.67;5.23;;;16.50;87.20;;;;;;5012395;28;20417;-73
2021/11/06 10:38:23;;;;;;;5.70;5.13;;;16.70;86.00;;;;;;5013306;28;20544;-72
2021/11/06 10:41:03;;;;;;;5.30;5.00;;;16.80;85.20;;;;;;5012399;28;20409;-72
2021/11/06 10:43:35;;;;;;;6.00;5.60;;;16.80;84.30;;;;;;5013004;28;20785;-72
2021/11/06 10:46:04;;;;;;;8.30;5.70;;;16.70;84.30;;;;;;5012331;28;20453;-72
2021/11/06 10:48:33;;;;;;;5.13;4.80;;;16.60;85.20;;;;;;5013127;28;20413;-72
2021/11/06 10:51:08;;;;;;;6.53;5.60;;;16.70;84.90;;;;;;5016291;28;20400;-72
2021/11/06 10:53:41;;;;;;;5.97;4.90;;;16.80;84.70;;;;;;5016892;28;20392;-72
2021/11/06 10:56:13;;;;;;;5.47;5.07;;;16.80;84.20;;;;;;5016796;28;20481;-72
2021/11/06 10:58:40;;;;;;;5.83;5.43;;;16.60;82.80;;;;;;4999301;28;20439;-72
2021/11/06 11:01:16;;;;;;;4.83;4.53;;;16.50;83.70;;;;;;5016021;28;20761;-72
2021/11/06 11:03:45;;;;;;;5.87;5.20;;;16.40;86.20;;;;;;5015823;28;20409;-73
2021/11/06 11:06:19;;;;;;;5.50;5.10;;;16.50;85.80;;;;;;5016588;28;20398;-72
2021/11/06 11:08:50;;;;;;;5.67;5.27;;;16.70;84.40;;;;;;5016015;28;20406;-73
2021/11/06 11:11:19;;;;;;;5.93;5.43;;;17.00;85.20;;;;;;5016377;28;20417;-72
2021/11/06 11:14:00;;;;;;;5.00;4.70;;;17.20;84.00;;;;;;4998609;28;20426;-73
2021/11/06 11:16:26;;;;;;;5.60;5.10;;;17.20;82.10;;;;;;5016485;28;20406;-72
2021/11/06 11:18:54;;;;;;;5.33;4.90;;;17.20;81.80;;;;;;5015737;28;20406;-72
2021/11/06 11:21:31;;;;;;;5.43;4.93;;;17.10;82.40;;;;;;5016325;28;20819;-72
2021/11/06 11:24:06;;;;;;;5.37;4.97;;;17.20;82.70;;;;;;5015192;28;20925;-72
2021/11/06 11:26:38;;;;;;;5.37;4.97;;;17.30;83.50;;;;;;5015468;28;20465;-72
2021/11/06 11:29:06;;;;;;;6.03;5.40;;;17.60;82.90;;;;;;5015277;28;20394;-72
2021/11/06 11:31:33;;;;;;;5.20;4.90;;;17.70;81.00;;;;;;5016151;28;20464;-72
2021/11/06 11:33:59;;;;;;;5.07;4.77;;;17.70;80.80;;;;;;5015181;28;20476;-72
2021/11/06 11:36:28;;;;;;;5.20;4.77;;;17.90;81.00;;;;;;5015976;28;20410;-72
2021/11/06 11:38:56;;;;;;;5.77;5.30;;;18.00;79.90;;;;;;5015109;28;20398;-73
2021/11/06 11:41:46;;;;;;;5.70;5.30;;;18.10;80.00;;;;;;5015974;28;20460;-72
2021/11/06 11:44:48;;;;;;;5.67;5.27;;;18.00;79.70;;;;;;4998371;28;20544;-72
2021/11/06 11:47:47;;;;;;;4.93;4.57;;;17.80;79.60;;;;;;5015808;28;20445;-72
2021/11/06 11:50:16;;;;;;;5.20;4.90;;;17.60;79.20;;;;;;4998255;28;20437;-72
2021/11/06 11:52:43;;;;;;;5.17;4.87;;;17.40;79.80;;;;;;5015703;28;20882;-72
2021/11/06 11:55:18;;;;;;;5.30;4.90;;;17.30;81.40;;;;;;5015019;28;20413;-72
2021/11/06 11:57:50;;;;;;;5.03;4.63;;;17.00;81.00;;;;;;5015725;28;20448;-72
2021/11/06 12:00:19;;;;;;;6.33;5.13;;;16.80;82.00;;;;;;5014988;28;20425;-72
2021/11/06 12:03:00;;;;;;;5.20;4.90;;;16.70;82.90;;;;;;5015167;28;20437;-74
2021/11/06 12:05:26;;;;;;;5.93;5.43;;;16.50;82.90;;;;;;4998032;28;20445;-72
2021/11/06 12:08:10;;;;;;;5.90;5.40;;;16.30;83.80;;;;;;5014917;28;20424;-72
2021/11/06 12:10:56;;;;;;;5.30;4.90;;;16.20;84.20;;;;;;5015436;28;20425;-72
2021/11/06 12:13:28;;;;;;;5.70;5.20;;;16.10;85.40;;;;;;5015518;28;20406;-72
2021/11/06 12:16:01;;;;;;;5.50;5.10;;;16.00;86.30;;;;;;5014803;28;20452;-73
2021/11/06 12:18:33;;;;;;;5.43;5.10;;;15.90;86.20;;;;;;5015012;28;20512;-72
2021/11/06 12:21:18;;;;;;;5.53;5.03;;;15.80;86.00;;;;;;5014634;28;20428;-72
2021/11/06 12:23:47;;;;;;;5.03;4.63;;;15.80;86.80;;;;;;5015253;28;20479;-72
2021/11/06 12:26:17;;;;;;;6.10;4.70;;;15.80;88.60;;;;;;5015107;28;20424;-72
2021/11/06 12:28:44;;;;;;;5.37;4.97;;;15.80;88.70;;;;;;5015103;28;20401;-72
2021/11/06 12:31:45;;;;;;;6.43;5.83;;;15.60;88.80;;;;;;5014405;28;20502;-72
2021/11/06 12:34:34;;;;;;;5.77;5.30;;;15.50;88.10;;;;;;5014171;28;20978;-72
2021/11/06 12:37:04;;;;;;;7.30;5.27;;;15.40;88.80;;;;;;5014324;28;20390;-72